Time;durP1;ratioP1;P1;durP2;ratioP2;P2;SDS_P1;SDS_P2;PMS_P1;PMS_P2;Temp;Humidity;BMP_temperature;BMP_pressure;BME280_temperature;BME280_humidity;BME280_pressure;Samples;Min_cycle;Max_cycle;Signal;HPM_P1;HPM_P2
2022/03/25 00:01:31;;;;;;;20.25;12.55;;;;;;;;;;6305863;22;20015;-83
2022/03/25 00:03:57;;;;;;;24.80;12.93;;;;;;;;;;6287273;22;20446;-83
2022/03/25 00:06:26;;;;;;;18.52;11.60;;;;;;;;;;6313462;22;20011;-83
2022/03/25 00:08:52;;;;;;;22.85;12.10;;;;;;;;;;6314431;22;19999;-83
2022/03/25 00:11:18;;;;;;;21.08;13.00;;;;;;;;;;6314786;22;19999;-83
2022/03/25 00:13:44;;;;;;;20.08;11.85;;;;;;;;;;6288208;22;20370;-83
2022/03/25 00:16:11;;;;;;;17.90;10.65;;;;;;;;;;6287997;22;20010;-83
2022/03/25 00:18:37;;;;;;;21.75;12.48;;;;;;;;;;6315008;22;20009;-83
2022/03/25 00:21:03;;;;;;;20.38;12.15;;;;;;;;;;6314725;22;20010;-83
2022/03/25 00:23:29;;;;;;;21.63;12.55;;;;;;;;;;6287016;22;20003;-83
2022/03/25 00:25:56;;;;;;;21.00;12.43;;;;;;;;;;6287396;22;20094;-83
2022/03/25 00:28:22;;;;;;;20.63;13.57;;;;;;;;;;6314525;22;20003;-83
2022/03/25 00:30:49;;;;;;;21.20;12.15;;;;;;;;;;6286903;22;20339;-83
2022/03/25 00:33:16;;;;;;;21.08;12.30;;;;;;;;;;6285607;22;20397;-84
2022/03/25 00:35:42;;;;;;;18.33;11.65;;;;;;;;;;6314475;22;20029;-84
2022/03/25 00:38:08;;;;;;;21.65;12.18;;;;;;;;;;6287543;22;19999;-83
2022/03/25 00:40:34;;;;;;;20.85;12.63;;;;;;;;;;6314615;22;19999;-83
2022/03/25 00:43:01;;;;;;;22.88;13.68;;;;;;;;;;6315816;22;20003;-83
2022/03/25 00:45:29;;;;;;;21.90;13.10;;;;;;;;;;6316189;22;19999;-83
2022/03/25 00:47:55;;;;;;;25.95;14.00;;;;;;;;;;6288903;22;20090;-83
2022/03/25 00:50:23;;;;;;;22.00;13.13;;;;;;;;;;6316590;22;19999;-83
2022/03/25 00:52:50;;;;;;;20.75;14.15;;;;;;;;;;6316637;22;20495;-83
2022/03/25 00:55:16;;;;;;;25.50;13.68;;;;;;;;;;6316525;22;20007;-83
2022/03/25 00:57:42;;;;;;;22.35;12.85;;;;;;;;;;6317435;22;19995;-84
2022/03/25 01:00:09;;;;;;;22.50;12.98;;;;;;;;;;6315911;22;20170;-83
2022/03/25 01:02:35;;;;;;;19.45;12.35;;;;;;;;;;6287916;22;20078;-83
2022/03/25 01:05:01;;;;;;;22.02;13.15;;;;;;;;;;6316500;22;20019;-83
2022/03/25 01:07:27;;;;;;;19.60;12.98;;;;;;;;;;6315835;22;20005;-83
2022/03/25 01:09:53;;;;;;;19.88;12.65;;;;;;;;;;6289586;22;20015;-83
2022/03/25 01:12:21;;;;;;;20.90;12.23;;;;;;;;;;6288463;22;20010;-83
2022/03/25 01:14:48;;;;;;;23.30;13.32;;;;;;;;;;6289164;22;20003;-83
2022/03/25 01:17:14;;;;;;;22.48;13.15;;;;;;;;;;6315043;22;20500;-83
2022/03/25 01:19:40;;;;;;;22.83;13.57;;;;;;;;;;6315908;22;20006;-83
2022/03/25 01:22:07;;;;;;;24.48;13.07;;;;;;;;;;6315776;22;20006;-83
2022/03/25 01:24:33;;;;;;;24.30;13.55;;;;;;;;;;6318971;22;20000;-83
2022/03/25 01:27:00;;;;;;;23.67;13.82;;;;;;;;;;6293616;22;20056;-83
2022/03/25 01:29:26;;;;;;;21.70;12.90;;;;;;;;;;6315803;22;20473;-83
2022/03/25 01:31:53;;;;;;;22.10;12.52;;;;;;;;;;6315874;22;20022;-83
2022/03/25 01:34:19;;;;;;;21.90;13.18;;;;;;;;;;6315954;22;19995;-83
2022/03/25 01:36:46;;;;;;;22.27;12.98;;;;;;;;;;6315137;22;20416;-83
2022/03/25 01:39:12;;;;;;;25.55;13.48;;;;;;;;;;6315948;22;19999;-83
2022/03/25 01:41:38;;;;;;;23.65;13.02;;;;;;;;;;6316236;22;20344;-83
2022/03/25 01:44:04;;;;;;;23.15;14.00;;;;;;;;;;6315773;22;20004;-83
2022/03/25 01:46:30;;;;;;;24.90;13.85;;;;;;;;;;6316366;22;20006;-83
2022/03/25 01:48:57;;;;;;;24.50;14.35;;;;;;;;;;6288071;22;20024;-83
2022/03/25 01:51:37;;;;;;;27.48;14.77;;;;;;;;;;6288197;22;20003;-83
2022/03/25 01:54:07;;;;;;;22.80;13.07;;;;;;;;;;6315559;22;19999;-83
2022/03/25 01:56:34;;;;;;;26.15;14.50;;;;;;;;;;6315485;22;20140;-83
2022/03/25 01:59:00;;;;;;;23.25;13.85;;;;;;;;;;6315456;22;20435;-83
2022/03/25 02:01:27;;;;;;;21.35;13.13;;;;;;;;;;6288234;22;20027;-83
2022/03/25 02:03:53;;;;;;;22.23;14.48;;;;;;;;;;6288300;22;20003;-83
2022/03/25 02:06:19;;;;;;;24.05;13.40;;;;;;;;;;6315938;22;20003;-83
2022/03/25 02:08:45;;;;;;;24.27;13.75;;;;;;;;;;6284129;22;20038;-83
2022/03/25 02:11:12;;;;;;;24.45;14.43;;;;;;;;;;6315880;22;20003;-83
2022/03/25 02:13:38;;;;;;;20.88;13.70;;;;;;;;;;6315446;22;19995;-83
2022/03/25 02:16:04;;;;;;;23.58;14.38;;;;;;;;;;6315627;22;20006;-83
2022/03/25 02:18:30;;;;;;;24.10;13.23;;;;;;;;;;6315073;22;20006;-83
2022/03/25 02:20:56;;;;;;;27.75;14.90;;;;;;;;;;6287322;22;20011;-83
2022/03/25 02:23:22;;;;;;;24.27;14.57;;;;;;;;;;6287697;22;20082;-83
2022/03/25 02:25:50;;;;;;;23.55;14.13;;;;;;;;;;6315500;22;20006;-83
2022/03/25 02:28:17;;;;;;;22.17;13.82;;;;;;;;;;6315452;22;20003;-83
2022/03/25 02:30:43;;;;;;;24.15;14.50;;;;;;;;;;6287357;22;20023;-83
2022/03/25 02:33:10;;;;;;;25.13;13.45;;;;;;;;;;6315237;22;20052;-83
2022/03/25 02:35:39;;;;;;;25.08;14.98;;;;;;;;;;6287336;22;20014;-83
2022/03/25 02:38:06;;;;;;;23.25;13.63;;;;;;;;;;6286089;22;20003;-83
2022/03/25 02:40:32;;;;;;;23.83;14.02;;;;;;;;;;6314745;22;20014;-83
2022/03/25 02:42:58;;;;;;;25.08;14.10;;;;;;;;;;6314661;22;20003;-83
2022/03/25 02:45:24;;;;;;;24.10;13.48;;;;;;;;;;6287696;22;20007;-83
2022/03/25 02:47:50;;;;;;;22.42;13.93;;;;;;;;;;6314968;22;20007;-83
2022/03/25 02:50:16;;;;;;;26.15;15.40;;;;;;;;;;6314462;22;20101;-83
2022/03/25 02:52:42;;;;;;;24.05;14.00;;;;;;;;;;6287771;22;20060;-83
2022/03/25 02:55:09;;;;;;;26.58;15.57;;;;;;;;;;6314391;22;19995;-83
2022/03/25 02:57:35;;;;;;;24.05;14.23;;;;;;;;;;6287834;22;20059;-83
2022/03/25 03:00:02;;;;;;;26.35;14.63;;;;;;;;;;6314746;22;20002;-83
2022/03/25 03:02:28;;;;;;;22.42;13.80;;;;;;;;;;6313451;22;19999;-83
2022/03/25 03:04:54;;;;;;;25.15;15.10;;;;;;;;;;6287062;22;20500;-83
2022/03/25 03:07:20;;;;;;;24.60;14.63;;;;;;;;;;6314036;22;19995;-83
2022/03/25 03:09:46;;;;;;;23.83;14.43;;;;;;;;;;6314685;22;20002;-83
2022/03/25 03:12:13;;;;;;;23.67;14.55;;;;;;;;;;6313785;22;19999;-83
2022/03/25 03:14:39;;;;;;;23.00;13.45;;;;;;;;;;6314680;22;20027;-83
2022/03/25 03:17:05;;;;;;;24.15;14.65;;;;;;;;;;6287529;22;20002;-83
2022/03/25 03:19:31;;;;;;;23.95;14.65;;;;;;;;;;6287479;22;20031;-83
2022/03/25 03:21:58;;;;;;;21.70;13.20;;;;;;;;;;6288994;22;20003;-83
2022/03/25 03:24:24;;;;;;;23.63;13.88;;;;;;;;;;6318229;22;19999;-83
2022/03/25 03:26:50;;;;;;;24.70;14.38;;;;;;;;;;6315668;22;19999;-83
2022/03/25 03:29:17;;;;;;;23.95;14.20;;;;;;;;;;6314553;22;20003;-83
2022/03/25 03:31:43;;;;;;;25.75;14.50;;;;;;;;;;6314872;22;20006;-83
2022/03/25 03:34:09;;;;;;;24.55;14.02;;;;;;;;;;6314666;22;19995;-83
2022/03/25 03:36:35;;;;;;;24.55;13.98;;;;;;;;;;6315037;22;20130;-83
2022/03/25 03:39:01;;;;;;;25.83;14.00;;;;;;;;;;6314958;22;19996;-83
2022/03/25 03:41:28;;;;;;;23.02;12.95;;;;;;;;;;6315234;22;20007;-83
2022/03/25 03:43:54;;;;;;;24.50;13.73;;;;;;;;;;6315338;22;19999;-83
2022/03/25 03:46:21;;;;;;;23.95;13.60;;;;;;;;;;6315124;22;20004;-84
2022/03/25 03:48:47;;;;;;;24.02;13.13;;;;;;;;;;6313532;22;19999;-83
2022/03/25 03:51:13;;;;;;;22.83;13.52;;;;;;;;;;6313866;22;20121;-83
2022/03/25 03:53:39;;;;;;;23.48;12.95;;;;;;;;;;6314289;22;19999;-83
2022/03/25 03:56:06;;;;;;;23.98;13.85;;;;;;;;;;6314686;22;20482;-83
2022/03/25 03:58:32;;;;;;;23.83;13.65;;;;;;;;;;6315052;22;20018;-83
2022/03/25 04:00:58;;;;;;;25.90;13.70;;;;;;;;;;6287202;22;20596;-83
2022/03/25 04:03:25;;;;;;;22.27;13.57;;;;;;;;;;6314401;22;20431;-83
2022/03/25 04:05:51;;;;;;;25.60;14.80;;;;;;;;;;6314875;22;20007;-83
2022/03/25 04:08:17;;;;;;;25.60;14.57;;;;;;;;;;6314704;22;20007;-83
2022/03/25 04:10:43;;;;;;;26.23;14.18;;;;;;;;;;6287397;22;20071;-83
2022/03/25 04:13:09;;;;;;;26.90;14.30;;;;;;;;;;6287314;22;20059;-83
2022/03/25 04:15:36;;;;;;;25.67;13.63;;;;;;;;;;6314771;22;19995;-83
2022/03/25 04:18:02;;;;;;;24.23;13.70;;;;;;;;;;6316291;22;20022;-83
2022/03/25 04:20:28;;;;;;;29.85;15.45;;;;;;;;;;6316004;22;20445;-83
2022/03/25 04:22:55;;;;;;;28.08;14.80;;;;;;;;;;6316057;22;19999;-83
2022/03/25 04:25:21;;;;;;;29.58;14.90;;;;;;;;;;6316432;22;19999;-83
2022/03/25 04:27:51;;;;;;;25.02;14.25;;;;;;;;;;6316460;22;19999;-83
2022/03/25 04:30:18;;;;;;;27.55;14.13;;;;;;;;;;6315740;22;20674;-83
2022/03/25 04:32:44;;;;;;;23.42;14.77;;;;;;;;;;6313461;22;20002;-83
2022/03/25 04:35:10;;;;;;;27.30;14.30;;;;;;;;;;6314784;22;19999;-83
2022/03/25 04:37:36;;;;;;;23.10;14.45;;;;;;;;;;6318042;22;20029;-83
2022/03/25 04:40:03;;;;;;;27.33;14.60;;;;;;;;;;6319308;22;20017;-83
2022/03/25 04:42:29;;;;;;;27.45;15.88;;;;;;;;;;6289944;22;20059;-83
2022/03/25 04:44:55;;;;;;;28.05;14.40;;;;;;;;;;6316697;22;20003;-83
2022/03/25 04:47:21;;;;;;;28.25;16.35;;;;;;;;;;6316383;22;19999;-83
2022/03/25 04:49:47;;;;;;;29.10;16.15;;;;;;;;;;6287630;22;19999;-83
2022/03/25 04:52:13;;;;;;;32.03;15.93;;;;;;;;;;6314211;22;20030;-83
2022/03/25 04:54:39;;;;;;;25.13;15.10;;;;;;;;;;6314815;22;19995;-83
2022/03/25 04:57:05;;;;;;;31.30;16.13;;;;;;;;;;6287630;22;20049;-83
2022/03/25 04:59:31;;;;;;;25.17;14.52;;;;;;;;;;6315478;22;20048;-83
2022/03/25 05:01:57;;;;;;;29.55;15.68;;;;;;;;;;6315242;22;20011;-83
2022/03/25 05:04:23;;;;;;;28.95;15.43;;;;;;;;;;6315084;22;19999;-83
2022/03/25 05:06:49;;;;;;;33.28;16.23;;;;;;;;;;6314304;22;20000;-83
2022/03/25 05:09:17;;;;;;;30.73;16.33;;;;;;;;;;6287457;22;20010;-83
2022/03/25 05:11:43;;;;;;;29.75;16.02;;;;;;;;;;6315810;22;20059;-83
2022/03/25 05:14:10;;;;;;;30.20;16.77;;;;;;;;;;6315711;22;20045;-83
2022/03/25 05:16:36;;;;;;;29.98;16.90;;;;;;;;;;6314854;22;19995;-83
2022/03/25 05:19:02;;;;;;;29.10;15.05;;;;;;;;;;6287342;22;20083;-82
2022/03/25 05:21:29;;;;;;;27.67;15.45;;;;;;;;;;6286962;22;20089;-83
2022/03/25 05:23:55;;;;;;;24.63;14.48;;;;;;;;;;6286290;22;20067;-82
2022/03/25 05:26:21;;;;;;;28.67;15.68;;;;;;;;;;6314315;22;19999;-82
2022/03/25 05:28:47;;;;;;;27.80;16.15;;;;;;;;;;6313157;22;20007;-82
2022/03/25 05:31:13;;;;;;;27.33;15.82;;;;;;;;;;6313047;22;20003;-82
2022/03/25 05:33:39;;;;;;;32.38;17.08;;;;;;;;;;6311864;22;19996;-82
2022/03/25 05:36:05;;;;;;;39.65;18.00;;;;;;;;;;6284656;22;20087;-82
2022/03/25 05:38:31;;;;;;;30.98;16.95;;;;;;;;;;6313930;22;20007;-82
2022/03/25 05:40:57;;;;;;;32.25;15.93;;;;;;;;;;6286478;22;20015;-82
2022/03/25 05:43:24;;;;;;;26.67;15.98;;;;;;;;;;6313216;22;20003;-82
2022/03/25 05:45:50;;;;;;;38.63;18.33;;;;;;;;;;6286370;22;20009;-82
2022/03/25 05:48:16;;;;;;;32.03;16.83;;;;;;;;;;6312389;22;19999;-82
2022/03/25 05:50:42;;;;;;;28.85;16.80;;;;;;;;;;6313201;22;20005;-82
2022/03/25 05:53:08;;;;;;;34.20;16.27;;;;;;;;;;6285738;22;20022;-82
2022/03/25 05:55:34;;;;;;;28.42;15.48;;;;;;;;;;6312255;22;19999;-82
2022/03/25 05:58:01;;;;;;;24.45;15.93;;;;;;;;;;6313086;22;20079;-82
2022/03/25 06:00:27;;;;;;;25.85;15.77;;;;;;;;;;6311672;22;20042;-82
2022/03/25 06:02:53;;;;;;;28.40;16.40;;;;;;;;;;6286016;22;20419;-82
2022/03/25 06:05:19;;;;;;;28.92;16.52;;;;;;;;;;6313182;22;20231;-82
2022/03/25 06:07:45;;;;;;;28.20;16.58;;;;;;;;;;6314085;22;20009;-82
2022/03/25 06:10:12;;;;;;;29.05;16.73;;;;;;;;;;6314193;22;19995;-82
2022/03/25 06:12:39;;;;;;;28.20;16.88;;;;;;;;;;6314445;22;19999;-82
2022/03/25 06:15:05;;;;;;;26.45;15.85;;;;;;;;;;6314596;22;20427;-82
2022/03/25 06:17:31;;;;;;;31.88;16.25;;;;;;;;;;6285376;22;19999;-82
2022/03/25 06:19:57;;;;;;;30.13;16.92;;;;;;;;;;6312741;22;20435;-82
2022/03/25 06:22:24;;;;;;;31.73;17.85;;;;;;;;;;6286484;22;20007;-82
2022/03/25 06:24:53;;;;;;;31.10;18.83;;;;;;;;;;6315344;22;19996;-82
2022/03/25 06:27:19;;;;;;;30.48;16.52;;;;;;;;;;6314194;22;20003;-82
2022/03/25 06:29:45;;;;;;;29.52;17.77;;;;;;;;;;6314389;22;20037;-82
2022/03/25 06:32:11;;;;;;;27.10;17.02;;;;;;;;;;6313552;22;20031;-82
2022/03/25 06:34:37;;;;;;;28.65;16.85;;;;;;;;;;6312148;22;20003;-82
2022/03/25 06:37:03;;;;;;;38.72;19.52;;;;;;;;;;6313082;22;19995;-82
2022/03/25 06:39:29;;;;;;;32.28;18.73;;;;;;;;;;6313048;22;20313;-82
2022/03/25 06:41:55;;;;;;;32.83;17.05;;;;;;;;;;6314497;22;20003;-82
2022/03/25 06:44:21;;;;;;;28.13;17.48;;;;;;;;;;6285917;22;20003;-82
2022/03/25 06:46:47;;;;;;;29.15;17.98;;;;;;;;;;6287227;22;20007;-82
2022/03/25 06:49:14;;;;;;;37.45;18.85;;;;;;;;;;6314421;22;20724;-82
2022/03/25 06:51:40;;;;;;;27.85;16.20;;;;;;;;;;6315817;22;20035;-82
2022/03/25 06:54:06;;;;;;;30.88;17.52;;;;;;;;;;6314042;22;20002;-82
2022/03/25 06:56:35;;;;;;;30.50;18.42;;;;;;;;;;6314230;22;19996;-82
2022/03/25 06:59:01;;;;;;;36.35;23.45;;;;;;;;;;6314249;22;20002;-82
2022/03/25 07:01:27;;;;;;;29.92;18.98;;;;;;;;;;6313939;22;20112;-82
2022/03/25 07:03:54;;;;;;;36.17;18.92;;;;;;;;;;6314615;22;20026;-83
2022/03/25 07:06:23;;;;;;;34.03;20.73;;;;;;;;;;6314422;22;20049;-84
2022/03/25 07:08:52;;;;;;;34.97;20.23;;;;;;;;;;6287428;22;20010;-82
2022/03/25 07:11:19;;;;;;;32.53;19.38;;;;;;;;;;6314953;22;20004;-83
2022/03/25 07:13:46;;;;;;;30.48;19.45;;;;;;;;;;6287880;22;20007;-82
2022/03/25 07:16:12;;;;;;;29.10;18.23;;;;;;;;;;6316486;22;20014;-83
2022/03/25 07:18:38;;;;;;;27.00;15.98;;;;;;;;;;6314148;22;19996;-83
2022/03/25 07:21:04;;;;;;;26.02;15.98;;;;;;;;;;6313580;22;20028;-83
2022/03/25 07:23:30;;;;;;;29.23;16.88;;;;;;;;;;6312995;22;20004;-83
2022/03/25 07:25:57;;;;;;;36.58;18.42;;;;;;;;;;6313438;22;20082;-82
2022/03/25 07:28:23;;;;;;;28.60;16.38;;;;;;;;;;6314886;22;20003;-82
2022/03/25 07:30:49;;;;;;;27.02;15.90;;;;;;;;;;6329521;22;20007;-83
2022/03/25 07:33:15;;;;;;;24.08;15.02;;;;;;;;;;6303186;22;19995;-82
2022/03/25 07:35:41;;;;;;;25.10;15.95;;;;;;;;;;6331773;22;20006;-82
2022/03/25 07:38:07;;;;;;;28.17;16.40;;;;;;;;;;6330902;22;20015;-83
2022/03/25 07:40:34;;;;;;;27.30;15.80;;;;;;;;;;6321441;22;20010;-83
2022/03/25 07:43:00;;;;;;;25.83;16.67;;;;;;;;;;6288016;22;20003;-83
2022/03/25 07:45:26;;;;;;;24.60;16.10;;;;;;;;;;6285719;22;20004;-83
2022/03/25 07:47:52;;;;;;;25.17;17.02;;;;;;;;;;6286345;22;20525;-83
2022/03/25 07:50:22;;;;;;;25.92;16.00;;;;;;;;;;6312671;22;20006;-83
2022/03/25 07:52:49;;;;;;;24.73;16.00;;;;;;;;;;6315859;22;19999;-83
2022/03/25 07:55:17;;;;;;;26.15;16.15;;;;;;;;;;6318143;22;20063;-83
2022/03/25 07:57:43;;;;;;;26.02;16.10;;;;;;;;;;6318437;22;19994;-83
2022/03/25 08:00:13;;;;;;;24.08;16.10;;;;;;;;;;6292780;22;20433;-83
2022/03/25 08:02:43;;;;;;;25.48;16.30;;;;;;;;;;6319264;22;19995;-82
2022/03/25 08:05:10;;;;;;;29.92;16.48;;;;;;;;;;6318707;22;19995;-83
2022/03/25 08:07:43;;;;;;;26.25;17.05;;;;;;;;;;6320859;22;20082;-83
2022/03/25 08:10:09;;;;;;;25.52;15.88;;;;;;;;;;6305261;22;19999;-82
2022/03/25 08:12:36;;;;;;;24.45;17.25;;;;;;;;;;6332929;22;20005;-82
2022/03/25 08:15:02;;;;;;;28.92;17.23;;;;;;;;;;6305658;22;20355;-83
2022/03/25 08:17:29;;;;;;;25.70;16.63;;;;;;;;;;6332301;22;20003;-83
2022/03/25 08:19:55;;;;;;;30.38;17.48;;;;;;;;;;6315309;22;20003;-83
2022/03/25 08:22:20;;;;;;;25.27;16.98;;;;;;;;;;6315256;22;20046;-84
2022/03/25 08:27:50;;;;;;;30.02;19.13;;;;;;;;;;6314800;22;20018;-83
2022/03/25 08:30:16;;;;;;;26.15;18.10;;;;;;;;;;6287707;22;20463;-83
2022/03/25 08:32:42;;;;;;;34.05;20.92;;;;;;;;;;6314806;22;20061;-83
2022/03/25 08:35:08;;;;;;;32.65;19.30;;;;;;;;;;6314956;22;20003;-82
2022/03/25 08:37:34;;;;;;;26.55;17.83;;;;;;;;;;6315074;22;20344;-82
2022/03/25 08:40:03;;;;;;;25.83;17.55;;;;;;;;;;6314715;22;19999;-83
2022/03/25 08:42:29;;;;;;;28.40;18.08;;;;;;;;;;6314224;22;20434;-82
2022/03/25 08:44:55;;;;;;;32.42;19.20;;;;;;;;;;6314329;22;20045;-81
2022/03/25 08:47:21;;;;;;;44.65;22.13;;;;;;;;;;6314924;22;20006;-82
2022/03/25 08:49:47;;;;;;;37.30;22.20;;;;;;;;;;6315566;22;19999;-82
2022/03/25 08:52:13;;;;;;;34.42;20.70;;;;;;;;;;6288486;22;19999;-82
2022/03/25 08:54:39;;;;;;;36.58;20.15;;;;;;;;;;6315286;22;19995;-82
2022/03/25 08:57:05;;;;;;;35.53;17.83;;;;;;;;;;6314707;22;20069;-81
2022/03/25 08:59:31;;;;;;;29.05;18.58;;;;;;;;;;6314110;22;19995;-81
2022/03/25 09:01:57;;;;;;;29.00;17.30;;;;;;;;;;6313579;22;20010;-82
2022/03/25 09:04:24;;;;;;;30.17;18.08;;;;;;;;;;6313283;22;20030;-82
2022/03/25 09:06:50;;;;;;;26.38;16.00;;;;;;;;;;6313895;22;20003;-82
2022/03/25 09:09:16;;;;;;;25.90;17.63;;;;;;;;;;6313921;22;20407;-82
2022/03/25 09:11:42;;;;;;;32.55;18.33;;;;;;;;;;6313383;22;20015;-82
2022/03/25 09:14:08;;;;;;;24.98;15.70;;;;;;;;;;6314275;22;20435;-82
2022/03/25 09:16:34;;;;;;;26.63;15.70;;;;;;;;;;6313826;22;20003;-82
2022/03/25 09:19:00;;;;;;;23.60;16.08;;;;;;;;;;6286787;22;20436;-82
2022/03/25 09:21:27;;;;;;;23.95;15.38;;;;;;;;;;6314375;22;20003;-82
2022/03/25 09:23:53;;;;;;;27.52;16.98;;;;;;;;;;6286706;22;20010;-82
2022/03/25 09:26:20;;;;;;;23.35;17.35;;;;;;;;;;6313223;22;19999;-81
2022/03/25 09:28:46;;;;;;;25.33;15.77;;;;;;;;;;6313379;22;20031;-81
2022/03/25 09:31:12;;;;;;;24.98;15.48;;;;;;;;;;6313598;22;20003;-82
2022/03/25 09:33:38;;;;;;;23.45;15.82;;;;;;;;;;6313737;22;20070;-81
2022/03/25 09:36:04;;;;;;;32.92;16.25;;;;;;;;;;6286413;22;20003;-81
2022/03/25 09:38:30;;;;;;;23.92;15.82;;;;;;;;;;6314152;22;19999;-81
2022/03/25 09:40:57;;;;;;;22.75;16.15;;;;;;;;;;6313215;22;20482;-80
2022/03/25 09:43:24;;;;;;;25.88;15.88;;;;;;;;;;6313465;22;20034;-82
2022/03/25 09:45:50;;;;;;;22.35;15.43;;;;;;;;;;6316465;22;20003;-82
2022/03/25 09:48:16;;;;;;;23.08;15.88;;;;;;;;;;6315663;22;20443;-82
2022/03/25 09:50:42;;;;;;;24.60;16.75;;;;;;;;;;6313547;22;20035;-82
2022/03/25 09:53:08;;;;;;;24.30;15.82;;;;;;;;;;6285727;22;20090;-82
2022/03/25 09:55:37;;;;;;;22.05;15.35;;;;;;;;;;6285897;22;20475;-82
2022/03/25 09:58:03;;;;;;;23.60;15.73;;;;;;;;;;6313140;22;20007;-82
2022/03/25 10:00:30;;;;;;;24.17;14.65;;;;;;;;;;6313621;22;20431;-83
2022/03/25 10:02:56;;;;;;;21.02;14.98;;;;;;;;;;6313453;22;20007;-83
2022/03/25 10:05:23;;;;;;;25.73;15.43;;;;;;;;;;6287307;22;20048;-82
2022/03/25 10:07:50;;;;;;;25.63;16.42;;;;;;;;;;6312662;22;20208;-82
2022/03/25 10:10:21;;;;;;;21.52;15.07;;;;;;;;;;6312836;22;20061;-82
2022/03/25 10:12:48;;;;;;;24.92;16.13;;;;;;;;;;6312892;22;20037;-82
2022/03/25 10:15:25;;;;;;;23.92;14.63;;;;;;;;;;6313382;22;19995;-82
2022/03/25 10:17:51;;;;;;;20.38;13.70;;;;;;;;;;6313746;22;20060;-82
2022/03/25 10:20:19;;;;;;;16.63;11.55;;;;;;;;;;6312690;22;20074;-82
2022/03/25 10:23:06;;;;;;;19.15;12.93;;;;;;;;;;6286033;22;20004;-82
2022/03/25 10:25:55;;;;;;;17.60;12.95;;;;;;;;;;6314275;22;20002;-83
2022/03/25 10:28:28;;;;;;;19.83;12.50;;;;;;;;;;6162277;23;20001;-83
2022/03/25 10:30:59;;;;;;;18.42;12.45;;;;;;;;;;6160207;23;20009;-83
2022/03/25 10:33:34;;;;;;;14.88;10.93;;;;;;;;;;6158865;23;20001;-83
2022/03/25 10:36:01;;;;;;;17.58;12.70;;;;;;;;;;6158133;23;20001;-83
2022/03/25 10:38:41;;;;;;;19.30;12.90;;;;;;;;;;6157737;23;20335;-82
2022/03/25 10:41:07;;;;;;;19.52;14.10;;;;;;;;;;6160449;23;20015;-83
2022/03/25 10:46:45;;;;;;;20.67;13.88;;;;;;;;;;6158866;23;20118;-84
2022/03/25 10:52:30;;;;;;;18.35;12.60;;;;;;;;;;6157146;23;20040;-83
2022/03/25 10:55:14;;;;;;;20.48;13.90;;;;;;;;;;6157509;23;20258;-83
2022/03/25 10:58:06;;;;;;;19.55;13.57;;;;;;;;;;6157847;23;20008;-82
2022/03/25 11:00:32;;;;;;;24.27;14.45;;;;;;;;;;6153356;23;20100;-82
2022/03/25 11:02:58;;;;;;;21.05;14.52;;;;;;;;;;6156887;23;20005;-82
2022/03/25 11:05:25;;;;;;;22.13;14.30;;;;;;;;;;6221143;22;20026;-83
2022/03/25 11:07:52;;;;;;;20.08;13.48;;;;;;;;;;6280556;22;20010;-83
2022/03/25 11:10:18;;;;;;;20.98;13.10;;;;;;;;;;6281233;22;20003;-83
2022/03/25 11:12:53;;;;;;;23.30;14.52;;;;;;;;;;6280848;22;19996;-82
2022/03/25 11:15:20;;;;;;;24.27;14.82;;;;;;;;;;6280726;22;20010;-83
2022/03/25 11:17:47;;;;;;;20.85;13.82;;;;;;;;;;6280097;22;20045;-83
2022/03/25 11:23:38;;;;;;;25.20;16.08;;;;;;;;;;6281427;22;20006;-83
2022/03/25 11:26:08;;;;;;;19.77;14.10;;;;;;;;;;6280691;22;20451;-83
2022/03/25 11:28:34;;;;;;;22.50;14.05;;;;;;;;;;6280570;22;20004;-83
2022/03/25 11:31:01;;;;;;;22.23;14.65;;;;;;;;;;6281092;22;20060;-83
2022/03/25 11:33:29;;;;;;;21.60;14.68;;;;;;;;;;6254007;22;20045;-84
2022/03/25 11:36:14;;;;;;;21.05;14.32;;;;;;;;;;6281222;22;20014;-82
2022/03/25 11:41:46;;;;;;;;;;;;;;;;;;6281993;22;20065;-83
2022/03/25 11:44:15;;;;;;;22.25;14.35;;;;;;;;;;6280209;22;19899;-82
2022/03/25 11:46:59;;;;;;;20.23;14.70;;;;;;;;;;6252789;22;20000;-82
2022/03/25 11:49:26;;;;;;;23.40;15.40;;;;;;;;;;6279897;22;20004;-82
2022/03/25 11:51:52;;;;;;;22.58;15.55;;;;;;;;;;6280176;22;20023;-82
2022/03/25 11:54:34;;;;;;;20.65;14.27;;;;;;;;;;6278071;22;20332;-81
2022/03/25 11:57:02;;;;;;;28.33;16.40;;;;;;;;;;6281042;22;20027;-82
2022/03/25 11:59:46;;;;;;;21.77;15.48;;;;;;;;;;6253606;22;20375;-82
2022/03/25 12:02:42;;;;;;;24.13;15.07;;;;;;;;;;6280499;22;20015;-82
2022/03/25 12:05:24;;;;;;;22.45;15.27;;;;;;;;;;6158484;23;20033;-82
2022/03/25 12:08:19;;;;;;;22.67;15.98;;;;;;;;;;6156736;23;20517;-82
2022/03/25 12:10:45;;;;;;;22.10;15.80;;;;;;;;;;6136598;23;20013;-82
2022/03/25 12:13:11;;;;;;;22.13;16.15;;;;;;;;;;6131404;23;20008;-82
2022/03/25 12:15:41;;;;;;;24.88;16.42;;;;;;;;;;6157097;23;20005;-84
2022/03/25 12:18:25;;;;;;;25.25;16.05;;;;;;;;;;6132277;23;20033;-84
2022/03/25 12:20:51;;;;;;;22.20;16.08;;;;;;;;;;6157328;23;20016;-83
2022/03/25 12:23:17;;;;;;;23.10;16.10;;;;;;;;;;6157027;23;20093;-83
2022/03/25 12:25:44;;;;;;;23.33;16.55;;;;;;;;;;6156705;23;20360;-83
2022/03/25 12:28:10;;;;;;;21.13;15.18;;;;;;;;;;6155739;23;20032;-84
2022/03/25 12:30:37;;;;;;;25.15;16.00;;;;;;;;;;6130833;23;20001;-83
2022/03/25 12:33:06;;;;;;;22.98;16.25;;;;;;;;;;6155730;23;20002;-84
2022/03/25 12:35:33;;;;;;;22.48;17.17;;;;;;;;;;6131340;23;20013;-83
2022/03/25 12:38:06;;;;;;;22.83;16.35;;;;;;;;;;6156101;23;20017;-83
2022/03/25 12:40:33;;;;;;;25.50;16.63;;;;;;;;;;6168497;22;20104;-82
2022/03/25 12:43:01;;;;;;;22.27;16.48;;;;;;;;;;6281547;22;19999;-82
2022/03/25 12:45:27;;;;;;;22.25;16.33;;;;;;;;;;6281681;22;20007;-82
2022/03/25 12:47:53;;;;;;;24.05;16.35;;;;;;;;;;6280865;22;20000;-82
2022/03/25 12:50:21;;;;;;;23.75;16.83;;;;;;;;;;6281294;22;20324;-84
2022/03/25 12:52:47;;;;;;;23.73;15.77;;;;;;;;;;6282044;22;20057;-83
2022/03/25 12:55:15;;;;;;;23.63;16.83;;;;;;;;;;6254466;22;20042;-82
2022/03/25 12:57:42;;;;;;;23.95;17.23;;;;;;;;;;6281416;22;20432;-83
2022/03/25 13:00:11;;;;;;;24.35;16.58;;;;;;;;;;6286246;22;20007;-83
2022/03/25 13:02:47;;;;;;;23.73;16.23;;;;;;;;;;6285771;22;20446;-82
2022/03/25 13:05:17;;;;;;;20.40;15.38;;;;;;;;;;6312175;22;20003;-82
2022/03/25 13:07:47;;;;;;;19.73;14.98;;;;;;;;;;6312782;22;20056;-83
2022/03/25 13:10:14;;;;;;;21.85;16.83;;;;;;;;;;6312391;22;19999;-83
2022/03/25 13:12:41;;;;;;;21.40;16.10;;;;;;;;;;6312910;22;20054;-83
2022/03/25 13:15:08;;;;;;;20.48;15.23;;;;;;;;;;6313004;22;20047;-83
2022/03/25 13:17:35;;;;;;;23.45;15.55;;;;;;;;;;6285312;22;20004;-82
2022/03/25 13:20:03;;;;;;;22.75;15.73;;;;;;;;;;6312761;22;20491;-82
2022/03/25 13:22:31;;;;;;;20.17;15.32;;;;;;;;;;6313384;22;19999;-83
2022/03/25 13:24:59;;;;;;;20.92;15.85;;;;;;;;;;6311705;22;20378;-84
2022/03/25 13:27:25;;;;;;;22.02;16.00;;;;;;;;;;6311755;22;19999;-83
2022/03/25 13:29:52;;;;;;;22.02;15.25;;;;;;;;;;6311921;22;20014;-82
2022/03/25 13:32:31;;;;;;;22.20;15.52;;;;;;;;;;6284312;22;20090;-84
2022/03/25 13:35:01;;;;;;;23.08;15.98;;;;;;;;;;6283852;22;20007;-83
2022/03/25 13:37:27;;;;;;;20.90;14.98;;;;;;;;;;6311543;22;20355;-82
2022/03/25 13:39:53;;;;;;;22.20;14.80;;;;;;;;;;6312925;22;20006;-84
2022/03/25 13:42:19;;;;;;;21.58;15.40;;;;;;;;;;6314177;22;20003;-83
2022/03/25 13:44:45;;;;;;;22.88;16.35;;;;;;;;;;6312908;22;20411;-83
2022/03/25 13:47:11;;;;;;;19.58;14.98;;;;;;;;;;6312049;22;20022;-84
2022/03/25 13:49:37;;;;;;;24.13;14.80;;;;;;;;;;6311864;22;20007;-82
2022/03/25 13:52:07;;;;;;;20.42;15.27;;;;;;;;;;6311482;22;20006;-83
2022/03/25 13:54:33;;;;;;;21.02;14.93;;;;;;;;;;6311444;22;20366;-83
2022/03/25 13:57:04;;;;;;;21.15;15.13;;;;;;;;;;6311608;22;20054;-83
2022/03/25 13:59:41;;;;;;;23.67;14.20;;;;;;;;;;6284569;22;19996;-83
2022/03/25 14:02:24;;;;;;;21.60;15.23;;;;;;;;;;6311126;22;20015;-83
2022/03/25 14:04:49;;;;;;;;;;;;;;;;;;6311611;22;20060;-82
2022/03/25 14:07:21;;;;;;;19.55;14.35;;;;;;;;;;6311441;22;20239;-83
2022/03/25 14:10:02;;;;;;;22.45;15.25;;;;;;;;;;6310937;22;20007;-83
2022/03/25 14:12:28;;;;;;;20.50;14.75;;;;;;;;;;6311577;22;19996;-83
2022/03/25 14:15:04;;;;;;;19.17;14.23;;;;;;;;;;6311451;22;20075;-81
2022/03/25 14:17:41;;;;;;;20.45;15.00;;;;;;;;;;6310949;22;20004;-82
2022/03/25 14:20:17;;;;;;;20.40;15.32;;;;;;;;;;6310526;22;20010;-83
2022/03/25 14:22:44;;;;;;;21.10;15.30;;;;;;;;;;6311430;22;20030;-84
2022/03/25 14:25:11;;;;;;;19.55;13.95;;;;;;;;;;6311188;22;20019;-82
2022/03/25 14:27:38;;;;;;;19.52;13.60;;;;;;;;;;6310743;22;20050;-82
2022/03/25 14:30:05;;;;;;;21.27;14.93;;;;;;;;;;6311317;22;19995;-83
2022/03/25 14:32:31;;;;;;;19.23;14.40;;;;;;;;;;6283245;22;20014;-84
2022/03/25 14:34:57;;;;;;;20.58;15.50;;;;;;;;;;6310213;22;20003;-83
2022/03/25 14:37:27;;;;;;;18.95;14.02;;;;;;;;;;6311235;22;20006;-83